Time;durP1;ratioP1;P1;durP2;ratioP2;P2;SDS_P1;SDS_P2;PMS_P1;PMS_P2;Temp;Humidity;BMP_temperature;BMP_pressure;BME280_temperature;BME280_humidity;BME280_pressure;Samples;Min_cycle;Max_cycle;Signal;HPM_P1;HPM_P2
2022/02/13 00:01:10;;;;;;;8.17;2.60;;;0.40;99.90;;;;;;5013974;28;20033;-85
2022/02/13 00:03:36;;;;;;;6.77;2.90;;;0.40;99.90;;;;;;5008670;28;20026;-84
2022/02/13 00:06:03;;;;;;;7.80;3.13;;;0.40;99.90;;;;;;5013059;28;20056;-85
2022/02/13 00:08:28;;;;;;;7.73;3.17;;;0.40;99.90;;;;;;5003505;28;20034;-85
2022/02/13 00:10:54;;;;;;;6.93;3.03;;;0.40;99.90;;;;;;5011651;28;20036;-85
2022/02/13 00:13:20;;;;;;;9.00;3.20;;;0.30;99.90;;;;;;5009784;28;20478;-85
2022/02/13 00:15:46;;;;;;;10.17;3.43;;;0.30;99.90;;;;;;5012118;28;20026;-85
2022/02/13 00:18:11;;;;;;;7.97;3.33;;;0.30;99.90;;;;;;5014235;28;20068;-85
2022/02/13 00:20:40;;;;;;;7.57;2.93;;;0.30;99.90;;;;;;5009355;28;20094;-85
2022/02/13 00:23:08;;;;;;;7.77;3.77;;;0.20;99.90;;;;;;5015426;28;20029;-84
2022/02/13 00:25:34;;;;;;;7.83;3.30;;;0.20;99.90;;;;;;5012757;28;20017;-84
2022/02/13 00:27:59;;;;;;;9.60;3.80;;;0.20;99.90;;;;;;5009862;28;20508;-84
2022/02/13 00:30:25;;;;;;;8.50;3.50;;;0.10;99.90;;;;;;5012149;28;20037;-85
2022/02/13 00:32:52;;;;;;;9.63;3.93;;;0.10;99.90;;;;;;5007496;28;20049;-85
2022/02/13 00:35:20;;;;;;;8.53;3.63;;;0.10;99.90;;;;;;5012692;28;20439;-85
2022/02/13 00:37:46;;;;;;;9.43;3.63;;;0.20;99.90;;;;;;5014797;28;20022;-85
2022/02/13 00:40:12;;;;;;;7.87;3.33;;;0.00;99.90;;;;;;5015006;28;20116;-85
2022/02/13 00:42:38;;;;;;;6.97;3.53;;;0.00;99.90;;;;;;5015110;28;20041;-85
2022/02/13 00:45:07;;;;;;;6.67;3.50;;;0.00;99.90;;;;;;5003528;28;20094;-85
2022/02/13 00:47:36;;;;;;;10.37;3.60;;;0.00;99.90;;;;;;4999499;28;20026;-84
2022/02/13 00:50:02;;;;;;;9.33;3.87;;;-0.10;99.90;;;;;;5014435;28;20030;-84
2022/02/13 00:52:28;;;;;;;11.07;4.03;;;-0.10;99.90;;;;;;5012188;28;20022;-84
2022/02/13 00:54:53;;;;;;;11.03;3.80;;;0.00;99.90;;;;;;5012187;28;20021;-84
2022/02/13 00:57:19;;;;;;;7.97;3.00;;;-0.10;99.90;;;;;;5014124;28;20085;-85
2022/02/13 00:59:44;;;;;;;13.63;4.30;;;-0.10;99.90;;;;;;5014695;28;20022;-84
2022/02/13 01:02:10;;;;;;;11.23;4.10;;;-0.10;99.90;;;;;;5027435;28;20062;-85
2022/02/13 01:04:35;;;;;;;8.27;3.67;;;-0.10;99.90;;;;;;5002770;28;20034;-85
2022/02/13 01:07:01;;;;;;;7.97;3.40;;;-0.10;99.90;;;;;;5005356;28;20040;-85
2022/02/13 01:09:30;;;;;;;10.10;3.23;;;-0.10;99.90;;;;;;5007198;28;20065;-85
2022/02/13 01:11:55;;;;;;;7.27;3.23;;;-0.20;99.90;;;;;;5007634;28;20113;-84
2022/02/13 01:14:21;;;;;;;8.93;3.23;;;-0.10;99.90;;;;;;5008262;28;20436;-85
2022/02/13 01:16:47;;;;;;;10.00;3.20;;;-0.10;99.90;;;;;;5021296;28;20041;-85
2022/02/13 01:19:12;;;;;;;8.83;3.60;;;-0.10;99.90;;;;;;5014578;28;20061;-85
2022/02/13 01:21:38;;;;;;;8.27;3.90;;;-0.10;99.90;;;;;;5014441;28;20030;-85
2022/02/13 01:24:04;;;;;;;8.87;3.87;;;-0.10;99.90;;;;;;5032479;28;20049;-85
2022/02/13 01:26:30;;;;;;;11.03;4.00;;;-0.10;99.90;;;;;;5028900;28;20061;-85
2022/02/13 01:28:56;;;;;;;9.17;4.00;;;-0.10;99.90;;;;;;5014166;28;20075;-85
2022/02/13 01:31:22;;;;;;;8.70;3.07;;;-0.10;99.90;;;;;;5006061;28;20037;-85
2022/02/13 01:33:47;;;;;;;9.80;4.33;;;-0.10;99.90;;;;;;5009032;28;20030;-85
2022/02/13 01:36:13;;;;;;;5.67;2.93;;;-0.20;99.90;;;;;;5012856;28;20388;-85
2022/02/13 01:38:39;;;;;;;7.27;3.67;;;-0.20;99.90;;;;;;5008187;28;20566;-84
2022/02/13 01:41:06;;;;;;;11.90;3.33;;;-0.20;99.90;;;;;;5011576;28;20033;-83
2022/02/13 01:43:32;;;;;;;11.30;3.83;;;-0.40;99.90;;;;;;5011377;28;20028;-84
2022/02/13 01:45:57;;;;;;;8.67;3.77;;;-0.30;99.90;;;;;;5013513;28;20026;-85
2022/02/13 01:48:23;;;;;;;8.47;4.20;;;-0.40;99.90;;;;;;5014203;28;20028;-84
2022/02/13 01:50:53;;;;;;;7.50;3.30;;;-0.40;99.90;;;;;;5010521;28;20026;-84
2022/02/13 01:53:19;;;;;;;7.67;3.77;;;-0.40;99.90;;;;;;5015684;28;20029;-84
2022/02/13 01:55:47;;;;;;;10.90;5.13;;;-0.30;99.90;;;;;;5015629;28;20507;-85
2022/02/13 01:58:12;;;;;;;8.53;3.80;;;-0.40;99.90;;;;;;5017820;28;20030;-83
2022/02/13 02:00:38;;;;;;;6.77;3.70;;;-0.40;99.90;;;;;;5014224;28;20553;-84
2022/02/13 02:03:04;;;;;;;9.17;3.63;;;-0.50;99.90;;;;;;5023757;28;20018;-84
2022/02/13 02:05:30;;;;;;;8.70;3.70;;;-0.50;99.90;;;;;;5015692;28;20030;-84
2022/02/13 02:07:56;;;;;;;9.03;4.07;;;-0.60;99.90;;;;;;5011234;28;20109;-83
2022/02/13 02:10:22;;;;;;;7.47;3.90;;;-0.60;99.90;;;;;;5018248;28;20053;-84
2022/02/13 02:12:49;;;;;;;8.73;3.87;;;-0.60;99.90;;;;;;5017990;28;20021;-84
2022/02/13 02:15:14;;;;;;;7.33;3.60;;;-0.60;99.90;;;;;;5011637;28;20042;-84
2022/02/13 02:17:40;;;;;;;9.33;4.17;;;-0.60;99.90;;;;;;5011512;28;20042;-84
2022/02/13 02:20:06;;;;;;;8.87;3.53;;;-0.60;99.90;;;;;;5016524;28;20029;-84
2022/02/13 02:22:34;;;;;;;6.90;3.50;;;-0.60;99.90;;;;;;5015076;28;20033;-84
2022/02/13 02:25:00;;;;;;;9.80;4.00;;;-0.60;99.90;;;;;;5014404;28;20088;-84
2022/02/13 02:27:25;;;;;;;9.33;4.10;;;-0.60;99.90;;;;;;5008049;28;20427;-84
2022/02/13 02:29:51;;;;;;;8.97;3.67;;;-0.60;99.90;;;;;;5017258;28;20061;-85
2022/02/13 02:32:17;;;;;;;9.27;3.73;;;-0.60;99.90;;;;;;5005781;28;20034;-84
2022/02/13 02:34:46;;;;;;;10.57;4.00;;;-0.70;99.90;;;;;;5009861;28;20041;-83
2022/02/13 02:37:11;;;;;;;9.87;4.17;;;-0.70;99.90;;;;;;5014076;28;20038;-84
2022/02/13 02:39:38;;;;;;;9.27;3.80;;;-0.70;99.90;;;;;;5011658;28;20038;-84
2022/02/13 02:42:04;;;;;;;8.20;3.83;;;-0.60;99.90;;;;;;5012084;28;20030;-84
2022/02/13 02:44:32;;;;;;;9.83;3.80;;;-0.60;99.90;;;;;;5015477;28;20032;-84
2022/02/13 02:46:58;;;;;;;7.90;3.73;;;-0.60;99.90;;;;;;5018684;28;20030;-84
2022/02/13 02:49:23;;;;;;;10.57;4.17;;;-0.60;99.90;;;;;;5029837;28;20092;-84
2022/02/13 02:51:49;;;;;;;9.53;4.20;;;-0.60;99.90;;;;;;5031537;28;20033;-83
2022/02/13 02:54:15;;;;;;;9.27;4.03;;;-0.60;99.90;;;;;;5047488;28;20030;-84
2022/02/13 02:56:41;;;;;;;10.60;4.37;;;-0.60;99.90;;;;;;5018437;28;20037;-84
2022/02/13 02:59:06;;;;;;;8.07;3.73;;;-0.60;99.90;;;;;;5016579;28;20014;-84
2022/02/13 03:01:32;;;;;;;9.80;4.03;;;-0.60;99.90;;;;;;5016432;28;20359;-84
2022/02/13 03:03:58;;;;;;;7.50;3.17;;;-0.60;99.90;;;;;;5005418;28;20030;-84
2022/02/13 03:06:23;;;;;;;9.97;3.87;;;-0.60;99.90;;;;;;5006349;28;20025;-84
2022/02/13 03:08:49;;;;;;;10.17;3.77;;;-0.50;99.90;;;;;;5026566;28;20030;-84
2022/02/13 03:11:15;;;;;;;6.63;2.73;;;-0.60;99.90;;;;;;5011489;28;20764;-84
2022/02/13 03:13:41;;;;;;;9.47;3.87;;;-0.60;99.90;;;;;;5013043;28;20034;-84
2022/02/13 03:16:07;;;;;;;10.03;4.17;;;-0.70;99.90;;;;;;5010424;28;20096;-84
2022/02/13 03:26:00;;;;;;;8.10;3.93;;;-0.80;99.90;;;;;;4988850;28;20050;-85
2022/02/13 03:31:56;;;;;;;;;;;;;;;;;;;;;
2022/02/13 03:34:36;;;;;;;9.70;3.63;;;-0.70;99.90;;;;;;4981737;28;21309;-85
2022/02/13 03:37:13;;;;;;;6.90;3.50;;;-0.70;99.90;;;;;;4966492;28;20039;-85
2022/02/13 03:46:57;;;;;;;9.70;3.50;;;-0.70;99.90;;;;;;4960430;28;20047;-85
2022/02/13 03:50:01;;;;;;;7.43;3.70;;;-0.70;99.90;;;;;;4966517;28;20062;-85
2022/02/13 03:56:15;;;;;;;6.60;3.33;;;-0.70;99.90;;;;;;4968257;28;20038;-85
2022/02/13 04:02:55;;;;;;;8.30;2.83;;;-0.90;99.90;;;;;;4940548;28;20047;-84
2022/02/13 04:06:01;;;;;;;;;;;;;;;;;;;;;
2022/02/13 04:08:57;;;;;;;12.43;3.97;;;-0.90;99.90;;;;;;5018943;23;20049;-85
2022/02/13 04:12:02;;;;;;;8.37;3.97;;;-1.00;99.90;;;;;;5046357;28;20039;-85
2022/02/13 04:14:59;;;;;;;;;;;;;;;;;;;;;
2022/02/13 04:18:06;;;;;;;9.87;4.47;;;-0.90;99.90;;;;;;5028232;28;20486;-85
2022/02/13 04:34:24;;;;;;;;;;;;;;;;;;;;;
2022/02/13 04:37:25;;;;;;;10.07;3.60;;;-1.00;99.90;;;;;;5043529;28;20039;-85
2022/02/13 04:50:02;;;;;;;8.20;3.60;;;-0.90;99.90;;;;;;5040297;28;20025;-85
2022/02/13 04:52:51;;;;;;;7.80;3.23;;;-0.90;99.90;;;;;;5026194;28;20104;-85
2022/02/13 04:56:11;;;;;;;;;;;;;;;;;;;;;
2022/02/13 05:02:27;;;;;;;;;;;;;;;;;;;;;
2022/02/13 05:05:41;;;;;;;7.07;3.13;;;-0.80;99.90;;;;;;5036884;28;20502;-85
2022/02/13 05:22:14;;;;;;;;;;;;;;;;;;;;;
2022/02/13 05:24:56;;;;;;;8.13;2.80;;;-0.70;99.90;;;;;;4969090;28;20035;-85
2022/02/13 05:31:29;;;;;;;9.37;2.63;;;-0.70;99.90;;;;;;5044343;28;20045;-85
2022/02/13 05:34:31;;;;;;;7.57;3.03;;;-0.70;99.90;;;;;;5001701;28;20418;-86
2022/02/13 05:37:21;;;;;;;7.23;2.73;;;-0.70;99.90;;;;;;5043074;28;20029;-85
2022/02/13 05:44:19;;;;;;;;;;;;;;;;;;;;;
2022/02/13 05:47:31;;;;;;;9.37;3.10;;;-0.70;99.90;;;;;;5041394;28;20027;-85
2022/02/13 05:53:51;;;;;;;6.03;2.30;;;-0.60;99.90;;;;;;5035268;28;20068;-85
2022/02/13 05:57:17;;;;;;;6.93;2.33;;;-0.50;99.90;;;;;;5042554;28;20079;-86
2022/02/13 06:03:32;;;;;;;;;;;;;;;;;;;;;
2022/02/13 06:06:17;;;;;;;6.67;2.23;;;-0.10;99.90;;;;;;5050542;28;20032;-85
2022/02/13 06:09:14;;;;;;;6.40;2.50;;;-0.10;99.90;;;;;;5046000;28;20115;-85
2022/02/13 06:16:07;;;;;;;;;;;;;;;;;;;;;
2022/02/13 06:18:56;;;;;;;5.17;2.27;;;-0.10;99.90;;;;;;5019235;28;20036;-86
2022/02/13 06:22:20;;;;;;;6.50;2.13;;;-0.10;99.90;;;;;;5028198;28;20526;-86
2022/02/13 06:25:46;;;;;;;5.30;2.00;;;-0.10;99.90;;;;;;5041744;28;20083;-85
2022/02/13 06:28:55;;;;;;;9.77;2.90;;;-0.20;99.90;;;;;;4956393;28;20036;-85
2022/02/13 06:32:10;;;;;;;4.43;2.10;;;-0.20;99.90;;;;;;4967510;28;20073;-86
2022/02/13 06:34:42;;;;;;;5.53;2.43;;;-0.20;99.90;;;;;;5040514;28;20453;-86
2022/02/13 06:37:49;;;;;;;6.97;2.87;;;-0.20;99.90;;;;;;5047518;28;20032;-86
2022/02/13 06:51:09;;;;;;;5.17;2.03;;;-0.10;99.90;;;;;;4950120;28;20038;-86
2022/02/13 06:57:19;;;;;;;7.23;2.50;;;-0.10;99.90;;;;;;5046769;28;20064;-86
2022/02/13 07:00:43;;;;;;;;;;;;;;;;;;;;;
2022/02/13 07:04:04;;;;;;;5.90;2.63;;;0.00;99.90;;;;;;5040729;28;20022;-86
2022/02/13 07:07:08;;;;;;;;;;;;;;;;;;;;;
2022/02/13 07:10:39;;;;;;;6.93;2.30;;;0.10;99.90;;;;;;5034511;28;20029;-86
2022/02/13 07:17:14;;;;;;;;;;;;;;;;;;;;;
2022/02/13 07:27:02;;;;;;;;;;;;;;;;;;;;;
2022/02/13 07:45:21;;;;;;;6.10;2.60;;;0.60;99.90;;;;;;1329473;26;20338;-86
2022/02/13 07:59:02;;;;;;;6.13;2.30;;;1.00;99.90;;;;;;4943006;29;20295;-86
2022/02/13 08:09:13;;;;;;;6.87;2.17;;;1.30;99.90;;;;;;4883333;29;20062;-85
2022/02/13 08:12:18;;;;;;;6.70;2.77;;;1.50;99.90;;;;;;4901142;29;20244;-86
2022/02/13 08:15:57;;;;;;;;;;;;;;;;;;;;;
2022/02/13 08:26:52;;;;;;;5.00;2.87;;;1.90;99.90;;;;;;4948065;28;20035;-85
2022/02/13 08:43:55;;;;;;;;;;;;;;;;;;;;;
2022/02/13 09:11:26;;;;;;;6.50;2.10;;;3.50;99.90;;;;;;4954030;28;20441;-87
2022/02/13 09:14:15;;;;;;;4.70;2.60;;;3.60;99.90;;;;;;4951155;28;20134;-87
2022/02/13 09:20:29;;;;;;;;;;;;;;;;;;;;;
2022/02/13 09:23:36;;;;;;;;;;;;;;;;;;;;;
2022/02/13 09:26:37;;;;;;;9.40;2.30;;;4.00;99.90;;;;;;5039547;28;20033;-87
2022/02/13 09:33:28;;;;;;;;;;;;;;;;;;;;;
2022/02/13 09:40:23;;;;;;;9.10;2.67;;;4.50;99.90;;;;;;4932782;29;20040;-88
2022/02/13 09:47:29;;;;;;;;;;;;;;;;;;;;;
2022/02/13 09:54:38;;;;;;;6.40;2.70;;;4.70;99.90;;;;;;4790906;29;20038;-87
2022/02/13 10:04:40;;;;;;;5.50;2.50;;;5.00;99.90;;;;;;4990716;28;20061;-87
2022/02/13 10:15:56;;;;;;;8.90;2.90;;;5.50;99.90;;;;;;5028102;23;20046;-85
2022/02/13 10:18:26;;;;;;;8.87;3.43;;;5.60;99.90;;;;;;4998736;28;20068;-86
2022/02/13 10:20:53;;;;;;;10.30;3.40;;;5.70;99.90;;;;;;5000100;28;20030;-86
2022/02/13 10:23:23;;;;;;;6.60;2.87;;;5.70;99.90;;;;;;5000652;28;20025;-86
2022/02/13 10:25:49;;;;;;;8.67;3.17;;;5.80;99.90;;;;;;5011177;28;20099;-86
2022/02/13 10:28:18;;;;;;;8.97;3.20;;;5.90;99.90;;;;;;4992966;28;20503;-86
2022/02/13 10:30:50;;;;;;;9.93;2.93;;;6.00;99.90;;;;;;4996988;28;20033;-86
2022/02/13 10:33:27;;;;;;;9.07;3.33;;;6.10;99.90;;;;;;4999771;28;20221;-86
2022/02/13 10:36:12;;;;;;;12.30;3.90;;;6.20;99.90;;;;;;5001038;28;20387;-86
2022/02/13 10:38:41;;;;;;;5.87;2.73;;;6.40;99.90;;;;;;5000166;28;20093;-86
2022/02/13 10:41:22;;;;;;;5.07;2.57;;;6.50;99.90;;;;;;5010686;28;20018;-86
2022/02/13 10:43:56;;;;;;;6.30;2.37;;;6.60;99.90;;;;;;5019682;28;20455;-86
2022/02/13 10:46:29;;;;;;;11.00;3.30;;;6.70;99.90;;;;;;4998756;28;20025;-86
2022/02/13 10:48:57;;;;;;;8.80;2.97;;;6.70;99.90;;;;;;5013587;28;20025;-86
2022/02/13 10:51:24;;;;;;;6.37;2.60;;;6.80;99.90;;;;;;4998632;28;20032;-85
2022/02/13 10:53:51;;;;;;;7.20;2.63;;;6.90;99.90;;;;;;5017469;28;20025;-86
2022/02/13 10:56:22;;;;;;;8.30;2.40;;;7.10;99.90;;;;;;4995772;28;20373;-86
2022/02/13 10:58:49;;;;;;;5.43;2.73;;;7.10;99.90;;;;;;5014586;28;20025;-86
2022/02/13 11:01:16;;;;;;;8.30;2.60;;;7.10;99.90;;;;;;5016350;28;20061;-86
2022/02/13 11:03:48;;;;;;;8.27;2.63;;;7.20;99.90;;;;;;4991514;28;20116;-86
2022/02/13 11:06:17;;;;;;;7.50;3.05;;;7.40;99.90;;;;;;4999707;28;20026;-86
2022/02/13 11:09:06;;;;;;;8.37;2.57;;;7.40;99.90;;;;;;5017614;28;20439;-86
2022/02/13 11:11:33;;;;;;;4.93;2.37;;;7.40;99.90;;;;;;5000383;28;20503;-86
2022/02/13 11:13:59;;;;;;;5.73;2.70;;;7.50;99.90;;;;;;5001913;28;20115;-86
2022/02/13 11:16:37;;;;;;;6.43;2.50;;;7.60;99.90;;;;;;4998761;28;20125;-86
2022/02/13 11:19:11;;;;;;;8.17;2.90;;;7.70;99.90;;;;;;5015938;28;20111;-86
2022/02/13 11:21:38;;;;;;;7.17;2.40;;;7.80;99.90;;;;;;4995885;28;20036;-86
2022/02/13 11:24:05;;;;;;;7.87;3.23;;;7.90;99.90;;;;;;5017022;28;20014;-86
2022/02/13 11:26:34;;;;;;;7.10;2.73;;;7.90;99.90;;;;;;5000758;28;20022;-87
2022/02/13 11:29:00;;;;;;;9.53;3.20;;;8.00;99.90;;;;;;4994572;28;20038;-86
2022/02/13 11:31:32;;;;;;;5.33;2.53;;;8.10;99.90;;;;;;4990122;28;20049;-86
2022/02/13 11:33:59;;;;;;;5.68;2.63;;;8.20;99.90;;;;;;4997311;28;20037;-87
2022/02/13 11:36:52;;;;;;;5.47;2.37;;;8.20;99.90;;;;;;4997088;28;20522;-86
2022/02/13 11:39:39;;;;;;;6.90;2.77;;;8.30;99.90;;;;;;4993843;28;20034;-87
2022/02/13 11:42:05;;;;;;;6.90;2.70;;;8.40;99.90;;;;;;5015957;28;20117;-87
2022/02/13 11:44:39;;;;;;;6.40;2.33;;;8.40;99.90;;;;;;4997506;28;20026;-87
2022/02/13 11:47:07;;;;;;;7.00;2.50;;;8.50;99.90;;;;;;4999126;28;20030;-87
2022/02/13 11:50:05;;;;;;;6.17;2.40;;;8.50;99.90;;;;;;5013008;28;20034;-86
2022/02/13 11:52:39;;;;;;;5.70;1.93;;;8.70;99.90;;;;;;4989084;28;20117;-86
2022/02/13 11:55:07;;;;;;;6.67;2.47;;;8.70;99.90;;;;;;5009784;28;20022;-86
2022/02/13 11:57:33;;;;;;;6.50;2.43;;;8.80;99.90;;;;;;5015092;28;20030;-86
2022/02/13 11:59:58;;;;;;;5.53;1.77;;;9.00;99.90;;;;;;4998681;28;20026;-86
2022/02/13 12:02:30;;;;;;;4.73;2.47;;;9.00;99.90;;;;;;5021035;28;20423;-88
2022/02/13 12:05:11;;;;;;;6.82;1.55;;;9.00;99.90;;;;;;5000947;28;20101;-88
2022/02/13 12:07:54;;;;;;;3.90;1.40;;;9.10;99.90;;;;;;5003728;28;20040;-88
2022/02/13 12:10:42;;;;;;;2.83;1.20;;;9.40;99.90;;;;;;5017779;28;20034;-90
2022/02/13 12:13:18;;;;;;;4.67;1.40;;;9.40;99.90;;;;;;5000921;28;20022;-87
2022/02/13 12:15:55;;;;;;;3.53;1.27;;;9.50;99.90;;;;;;5000531;28;20511;-88
2022/02/13 12:18:30;;;;;;;3.13;1.30;;;9.60;99.90;;;;;;5015943;28;20025;-88
2022/02/13 12:21:15;;;;;;;2.88;0.95;;;9.60;99.90;;;;;;5010581;28;20030;-87
2022/02/13 12:23:42;;;;;;;4.75;0.90;;;9.80;99.90;;;;;;5017358;28;20037;-88
2022/02/13 12:26:20;;;;;;;4.25;1.45;;;9.90;99.40;;;;;;5020653;28;20403;-87
2022/02/13 12:28:51;;;;;;;7.13;1.33;;;9.90;99.50;;;;;;5018066;28;20034;-88
2022/02/13 12:31:22;;;;;;;3.97;1.50;;;9.90;99.90;;;;;;5016638;28;20030;-88
2022/02/13 12:33:59;;;;;;;3.67;1.08;;;10.00;99.30;;;;;;5000536;28;20049;-87
2022/02/13 12:36:29;;;;;;;5.07;1.38;;;10.10;98.60;;;;;;5016282;28;20026;-88
2022/02/13 12:38:59;;;;;;;3.03;1.15;;;10.10;98.20;;;;;;4993740;28;20022;-87
2022/02/13 12:41:25;;;;;;;2.75;1.13;;;10.10;97.90;;;;;;5002269;28;20029;-87
2022/02/13 12:43:55;;;;;;;4.10;1.20;;;10.10;98.40;;;;;;4998417;28;20081;-87
2022/02/13 12:46:25;;;;;;;1.98;0.98;;;10.20;98.10;;;;;;4996071;28;20018;-88
2022/02/13 12:48:51;;;;;;;4.93;1.83;;;10.20;97.50;;;;;;5001641;28;20057;-87
2022/02/13 12:51:28;;;;;;;4.35;1.20;;;10.20;98.00;;;;;;5002127;28;20022;-87
2022/02/13 12:53:57;;;;;;;4.68;1.20;;;10.30;97.20;;;;;;5002455;28;20076;-87
2022/02/13 12:56:27;;;;;;;6.55;1.50;;;10.40;97.70;;;;;;5006486;28;20022;-85
2022/02/13 12:58:54;;;;;;;2.45;1.00;;;10.30;97.70;;;;;;5002039;28;20045;-86
2022/02/13 13:01:30;;;;;;;3.58;1.40;;;10.50;97.30;;;;;;5021405;28;20114;-86
2022/02/13 13:03:59;;;;;;;4.05;1.30;;;10.50;96.90;;;;;;5018609;28;20508;-86
2022/02/13 13:06:28;;;;;;;2.72;1.13;;;10.60;96.60;;;;;;5004463;28;20044;-86
2022/02/13 13:08:57;;;;;;;2.65;1.20;;;10.50;96.50;;;;;;5007899;28;20058;-85
2022/02/13 13:11:29;;;;;;;3.03;1.38;;;10.50;96.90;;;;;;5025256;28;20018;-86
2022/02/13 13:14:05;;;;;;;3.30;1.15;;;10.50;96.60;;;;;;5007716;28;20434;-86
2022/02/13 13:16:34;;;;;;;3.47;1.20;;;10.60;96.90;;;;;;5005900;28;20037;-86
2022/02/13 13:19:08;;;;;;;3.30;1.00;;;10.60;96.80;;;;;;5016083;28;20022;-85
2022/02/13 13:21:53;;;;;;;4.28;1.48;;;10.70;96.30;;;;;;5027531;28;20122;-86
2022/02/13 13:24:23;;;;;;;3.05;0.95;;;10.70;95.10;;;;;;5011516;28;20078;-86
2022/02/13 13:26:56;;;;;;;3.42;0.82;;;10.90;95.60;;;;;;5009147;28;20026;-87
2022/02/13 13:29:32;;;;;;;6.45;1.70;;;10.90;94.40;;;;;;5009131;28;20034;-87
2022/02/13 13:32:00;;;;;;;2.75;0.88;;;10.90;94.70;;;;;;4999301;28;20195;-88
2022/02/13 13:34:28;;;;;;;3.45;1.33;;;10.90;94.60;;;;;;5001975;28;20052;-87
2022/02/13 13:37:17;;;;;;;2.72;1.08;;;11.00;95.00;;;;;;4993453;28;20041;-88
2022/02/13 13:39:43;;;;;;;3.58;0.93;;;11.10;95.10;;;;;;4985549;28;20034;-88
2022/02/13 13:42:15;;;;;;;4.80;1.75;;;11.10;94.00;;;;;;4983257;28;20102;-88
2022/02/13 13:44:41;;;;;;;6.60;1.23;;;11.10;93.70;;;;;;5012363;28;20656;-88
2022/02/13 13:47:07;;;;;;;3.67;1.23;;;11.10;93.80;;;;;;4989521;28;21023;-88
2022/02/13 13:49:33;;;;;;;2.42;0.90;;;11.30;93.70;;;;;;5010772;28;20022;-88
2022/02/13 13:52:08;;;;;;;2.78;0.98;;;11.20;94.40;;;;;;5021328;28;20034;-88
2022/02/13 13:54:34;;;;;;;3.17;1.00;;;11.30;93.50;;;;;;5010912;28;20030;-89
2022/02/13 13:57:02;;;;;;;4.22;1.15;;;11.50;93.00;;;;;;5011847;28;20014;-87
2022/02/13 13:59:28;;;;;;;3.97;1.02;;;11.50;92.60;;;;;;5001526;28;21536;-87
2022/02/13 14:01:54;;;;;;;2.72;0.90;;;11.50;93.00;;;;;;5018803;28;20038;-87
2022/02/13 14:04:20;;;;;;;4.13;1.35;;;11.50;93.00;;;;;;5016436;28;20021;-87
2022/02/13 14:06:46;;;;;;;1.65;0.75;;;11.70;93.10;;;;;;5006338;28;20025;-87
2022/02/13 14:09:13;;;;;;;3.65;1.20;;;11.70;92.90;;;;;;5014212;28;20026;-87
2022/02/13 14:11:40;;;;;;;3.65;1.08;;;11.70;93.10;;;;;;5013743;28;20065;-87
2022/02/13 14:14:07;;;;;;;4.32;1.02;;;11.80;92.40;;;;;;5008515;28;20030;-87
2022/02/13 14:16:53;;;;;;;3.90;1.08;;;11.90;92.40;;;;;;4996353;28;20038;-87
2022/02/13 14:19:21;;;;;;;3.10;0.95;;;12.00;91.50;;;;;;4998844;28;20081;-88
2022/02/13 14:21:54;;;;;;;1.42;0.73;;;12.10;91.90;;;;;;5016945;28;20030;-87
2022/02/13 14:24:20;;;;;;;1.77;0.65;;;12.00;91.30;;;;;;5019250;28;20025;-88
2022/02/13 14:26:46;;;;;;;1.83;0.70;;;12.00;90.80;;;;;;4999332;28;20034;-87
2022/02/13 14:29:12;;;;;;;3.10;1.13;;;12.00;90.50;;;;;;5016244;28;20037;-88
2022/02/13 14:31:44;;;;;;;2.17;0.70;;;11.80;91.10;;;;;;4998706;28;20022;-88
2022/02/13 14:34:12;;;;;;;2.63;0.80;;;11.90;90.70;;;;;;5007612;28;20046;-88
2022/02/13 14:36:38;;;;;;;2.92;0.68;;;12.00;90.40;;;;;;5022647;28;20022;-88
2022/02/13 14:39:07;;;;;;;3.33;0.65;;;11.90;90.00;;;;;;5029140;28;20026;-88
2022/02/13 14:41:35;;;;;;;3.55;0.85;;;12.00;88.90;;;;;;5023066;28;20046;-88
2022/02/13 14:44:03;;;;;;;1.23;0.63;;;12.20;89.50;;;;;;5021026;28;20030;-88
2022/02/13 14:46:32;;;;;;;2.97;0.70;;;12.40;89.20;;;;;;4999737;28;20064;-89
2022/02/13 14:49:00;;;;;;;2.00;0.68;;;12.70;89.20;;;;;;5021494;28;20049;-89
2022/02/13 14:51:27;;;;;;;1.52;0.65;;;12.90;87.60;;;;;;5022073;28;20054;-89
2022/02/13 14:53:54;;;;;;;3.85;0.73;;;13.10;87.70;;;;;;5020342;28;20037;-88
2022/02/13 14:56:20;;;;;;;3.25;0.70;;;13.40;85.50;;;;;;5003191;28;20075;-88
2022/02/13 14:58:46;;;;;;;2.55;0.50;;;13.60;83.90;;;;;;5022450;28;20025;-89
2022/02/13 15:01:12;;;;;;;4.35;0.70;;;13.40;83.40;;;;;;5024173;28;20022;-87
2022/02/13 15:03:38;;;;;;;3.08;0.93;;;13.50;83.10;;;;;;5018832;28;20018;-88
2022/02/13 15:06:08;;;;;;;2.28;0.70;;;13.80;83.10;;;;;;5006253;28;20032;-88
2022/02/13 15:08:34;;;;;;;1.58;0.68;;;13.80;82.20;;;;;;5004327;28;20076;-89
2022/02/13 15:11:05;;;;;;;2.22;0.65;;;13.80;81.00;;;;;;5021296;28;20037;-88
2022/02/13 15:13:32;;;;;;;3.10;0.80;;;13.80;81.20;;;;;;5022592;28;20034;-89
2022/02/13 15:16:00;;;;;;;1.90;0.60;;;13.90;81.30;;;;;;5003695;28;20088;-88
2022/02/13 15:18:33;;;;;;;2.90;0.57;;;14.20;80.90;;;;;;5018859;28;20549;-88
2022/02/13 15:21:02;;;;;;;3.47;0.70;;;14.10;78.60;;;;;;5013024;28;20022;-92
2022/02/13 15:23:32;;;;;;;1.52;0.50;;;13.80;79.30;;;;;;5019496;28;20081;-87
2022/02/13 15:25:58;;;;;;;1.55;0.50;;;13.60;79.40;;;;;;5021930;28;20384;-87
2022/02/13 15:28:24;;;;;;;1.90;0.57;;;13.40;80.20;;;;;;5003721;28;20036;-88
2022/02/13 15:30:50;;;;;;;1.67;0.60;;;12.90;80.90;;;;;;5019901;28;20049;-88
2022/02/13 15:33:16;;;;;;;2.78;0.52;;;12.10;82.10;;;;;;5019386;28;20524;-88
2022/02/13 15:35:51;;;;;;;2.17;0.80;;;11.70;84.30;;;;;;5006836;28;20040;-88
2022/02/13 15:38:16;;;;;;;3.53;0.88;;;11.20;85.30;;;;;;5002097;28;20045;-88
2022/02/13 15:40:42;;;;;;;3.10;0.93;;;11.00;86.20;;;;;;5011351;28;20041;-89
2022/02/13 15:43:10;;;;;;;1.48;0.55;;;10.70;87.30;;;;;;5006163;28;20049;-88
2022/02/13 15:45:36;;;;;;;1.98;0.50;;;10.60;88.10;;;;;;5033082;28;20022;-88
2022/02/13 15:48:02;;;;;;;2.50;0.68;;;10.50;89.00;;;;;;5011529;28;20034;-86
2022/02/13 15:50:28;;;;;;;3.10;1.02;;;10.30;89.80;;;;;;5033504;28;20089;-88
2022/02/13 15:52:53;;;;;;;2.63;0.85;;;10.20;90.00;;;;;;5025457;28;20029;-87
2022/02/13 15:55:20;;;;;;;1.58;0.60;;;10.10;89.80;;;;;;5010540;28;20021;-88
2022/02/13 15:57:46;;;;;;;3.47;0.75;;;10.00;90.30;;;;;;5029855;28;20069;-89
2022/02/13 16:00:12;;;;;;;1.75;0.57;;;9.90;90.40;;;;;;5030150;28;20033;-88
2022/02/13 16:02:38;;;;;;;1.80;0.70;;;9.80;90.50;;;;;;5008493;28;20033;-88
2022/02/13 16:05:04;;;;;;;2.22;0.85;;;9.70;90.90;;;;;;4992202;28;20029;-89
2022/02/13 16:07:30;;;;;;;2.83;0.80;;;9.60;90.90;;;;;;4995044;28;20018;-88
2022/02/13 16:09:55;;;;;;;2.90;0.55;;;9.60;90.70;;;;;;4990495;28;20076;-88
2022/02/13 16:12:21;;;;;;;1.95;0.70;;;9.60;91.10;;;;;;5010058;28;20411;-88
2022/02/13 16:14:47;;;;;;;1.77;0.60;;;9.40;91.30;;;;;;5007616;28;20054;-89
2022/02/13 16:17:13;;;;;;;2.03;0.60;;;9.40;91.40;;;;;;4994863;28;20029;-88
2022/02/13 16:19:41;;;;;;;3.30;0.80;;;9.30;91.40;;;;;;5011206;28;20018;-88
2022/02/13 16:22:07;;;;;;;3.05;0.82;;;9.10;91.70;;;;;;5005820;28;20345;-89
2022/02/13 16:24:36;;;;;;;1.00;0.40;;;9.00;92.20;;;;;;5010992;28;20104;-88
2022/02/13 16:27:02;;;;;;;5.10;0.68;;;8.90;92.60;;;;;;5007031;28;20014;-87
2022/02/13 16:29:41;;;;;;;1.45;0.43;;;8.70;92.80;;;;;;5035260;23;20607;-85
2022/02/13 16:32:40;;;;;;;;;;;;;;;;;;;;;
2022/02/13 16:35:54;;;;;;;5.55;0.90;;;8.50;93.30;;;;;;5035636;28;20030;-86
2022/02/13 16:41:56;;;;;;;;;;;;;;;;;;;;;
2022/02/13 16:44:41;;;;;;;2.60;0.95;;;8.10;94.20;;;;;;5022220;28;20426;-85
2022/02/13 16:47:42;;;;;;;3.92;0.80;;;8.00;94.10;;;;;;5001299;28;20072;-85
2022/02/13 16:50:20;;;;;;;3.13;0.50;;;8.00;94.40;;;;;;5004076;28;20022;-85
2022/02/13 16:56:43;;;;;;;2.37;0.80;;;8.00;94.40;;;;;;5020028;28;20542;-85
2022/02/13 16:59:56;;;;;;;3.97;1.23;;;7.90;94.50;;;;;;4977581;28;20590;-85
2022/02/13 17:02:51;;;;;;;3.27;0.80;;;7.80;94.30;;;;;;5011341;28;20037;-85
2022/02/13 17:08:38;;;;;;;2.53;0.90;;;7.70;94.00;;;;;;5024363;28;20030;-85
2022/02/13 17:11:32;;;;;;;4.50;0.70;;;7.60;93.90;;;;;;5000443;28;20033;-85
2022/02/13 17:14:16;;;;;;;2.07;0.80;;;7.50;94.20;;;;;;5011635;28;20509;-85
2022/02/13 17:17:36;;;;;;;1.87;0.73;;;7.40;94.30;;;;;;5010715;28;20034;-85
2022/02/13 17:20:19;;;;;;;2.10;0.90;;;7.30;94.00;;;;;;5008172;28;20125;-85
2022/02/13 17:22:50;;;;;;;3.43;1.00;;;7.20;93.90;;;;;;5007688;28;20073;-85
2022/02/13 17:26:00;;;;;;;;;;;;;;;;;;;;;
2022/02/13 17:29:02;;;;;;;;;;;;;;;;;;;;;
2022/02/13 17:35:09;;;;;;;3.65;1.30;;;6.90;93.90;;;;;;5022574;28;20271;-86
2022/02/13 17:37:56;;;;;;;3.30;1.07;;;7.00;93.60;;;;;;4997456;28;20040;-85
2022/02/13 17:41:24;;;;;;;2.30;0.80;;;7.00;93.80;;;;;;4996273;28;20113;-86
2022/02/13 17:47:08;;;;;;;3.53;0.90;;;6.80;94.20;;;;;;5013361;28;20025;-86
2022/02/13 17:49:42;;;;;;;3.37;1.30;;;6.60;94.30;;;;;;5025804;28;20026;-85
2022/02/13 17:56:10;;;;;;;3.90;1.00;;;6.40;94.80;;;;;;5015494;28;20033;-86
2022/02/13 17:59:14;;;;;;;3.07;1.30;;;6.30;94.80;;;;;;5002452;28;20026;-86
2022/02/13 18:02:26;;;;;;;;;;;;;;;;;;;;;
2022/02/13 18:08:57;;;;;;;2.87;0.93;;;6.20;95.30;;;;;;5000130;28;20156;-86
2022/02/13 18:11:42;;;;;;;3.73;1.00;;;6.10;95.40;;;;;;5003177;28;20049;-85
2022/02/13 18:14:39;;;;;;;3.53;1.20;;;6.20;95.40;;;;;;5005597;28;20037;-86
2022/02/13 18:20:51;;;;;;;4.37;1.40;;;6.10;95.30;;;;;;5102223;22;20057;-85